Time;durP1;ratioP1;P1;durP2;ratioP2;P2;SDS_P1;SDS_P2;PMS_P1;PMS_P2;Temp;Humidity;BMP_temperature;BMP_pressure;BME280_temperature;BME280_humidity;BME280_pressure;Samples;Min_cycle;Max_cycle;Signal;HPM_P1;HPM_P2
2023/06/24 00:11:55;;;;;;;;;6.33;4.33;;;;;;;;5063505;22;45475;-69
2023/06/24 00:14:21;;;;;;;;;3.00;2.33;;;;;;;;5109772;27;45744;-69
2023/06/24 00:16:50;;;;;;;;;5.67;4.67;;;;;;;;5105748;27;45441;-70
2023/06/24 00:19:18;;;;;;;;;7.67;6.00;;;;;;;;5081257;27;46558;-68
2023/06/24 00:21:44;;;;;;;;;4.33;4.33;;;;;;;;5097717;27;46059;-68
2023/06/24 00:24:09;;;;;;;;;4.67;4.67;;;;;;;;5085023;27;45424;-69
2023/06/24 00:26:34;;;;;;;;;7.00;4.00;;;;;;;;5100615;27;45905;-69
2023/06/24 00:29:00;;;;;;;;;5.00;4.33;;;;;;;;5103776;27;45688;-72
2023/06/24 00:31:25;;;;;;;;;5.67;5.67;;;;;;;;5109056;27;45783;-68
2023/06/24 00:33:52;;;;;;;;;2.00;2.00;;;;;;;;5107964;27;45681;-69
2023/06/24 00:36:17;;;;;;;;;3.67;3.67;;;;;;;;5111721;27;45416;-68
2023/06/24 00:38:42;;;;;;;;;2.67;2.67;;;;;;;;5107968;27;45739;-68
2023/06/24 00:41:07;;;;;;;;;5.00;5.00;;;;;;;;5109405;27;45523;-69
2023/06/24 00:43:33;;;;;;;;;3.67;2.00;;;;;;;;5104112;27;45578;-68
2023/06/24 00:45:58;;;;;;;;;5.33;4.33;;;;;;;;5107571;27;45726;-68
2023/06/24 00:48:24;;;;;;;;;5.67;3.33;;;;;;;;5109608;27;45832;-69
2023/06/24 00:50:49;;;;;;;;;5.00;4.00;;;;;;;;5093121;27;46826;-69
2023/06/24 00:53:18;;;;;;;;;7.67;6.67;;;;;;;;5111293;27;45695;-68
2023/06/24 00:55:45;;;;;;;;;5.00;5.00;;;;;;;;5093990;27;45799;-69
2023/06/24 00:58:10;;;;;;;;;8.33;6.33;;;;;;;;5091318;27;45848;-69
2023/06/24 01:03:14;;;;;;;;;3.67;3.00;;;;;;;;4987059;25;45881;-82
2023/06/24 01:05:49;;;;;;;;;4.33;4.33;;;;;;;;5040666;28;45533;-81
2023/06/24 01:08:15;;;;;;;;;5.33;5.33;;;;;;;;5026638;28;45593;-83
2023/06/24 01:10:40;;;;;;;;;4.67;4.67;;;;;;;;5059137;28;45839;-83
2023/06/24 01:13:06;;;;;;;;;5.00;4.33;;;;;;;;5039796;28;45737;-81
2023/06/24 01:15:31;;;;;;;;;6.33;5.00;;;;;;;;5041103;28;45450;-82
2023/06/24 01:17:59;;;;;;;;;6.00;6.00;;;;;;;;5060736;28;45404;-81
2023/06/24 01:20:31;;;;;;;;;6.00;4.67;;;;;;;;5068630;28;46136;-80
2023/06/24 01:23:02;;;;;;;;;8.00;5.67;;;;;;;;5054731;28;45449;-81
2023/06/24 01:25:32;;;;;;;;;3.67;1.67;;;;;;;;5034196;28;45457;-83
2023/06/24 01:28:17;;;;;;;;;7.33;5.33;;;;;;;;5055856;28;45806;-82
2023/06/24 01:31:07;;;;;;;;;7.67;5.00;;;;;;;;5058826;28;46682;-83
2023/06/24 01:36:49;;;;;;;;;6.33;6.00;;;;;;;;5040809;28;44958;-84
2023/06/24 01:39:34;;;;;;;;;5.00;5.00;;;;;;;;5060076;28;44872;-83
2023/06/24 01:42:14;;;;;;;;;9.00;6.00;;;;;;;;5056678;28;45645;-83
2023/06/24 01:44:44;;;;;;;;;7.33;7.33;;;;;;;;5065229;28;45482;-83
2023/06/24 01:47:18;;;;;;;;;7.33;6.33;;;;;;;;5044331;28;45144;-82
2023/06/24 01:49:49;;;;;;;;;9.33;7.00;;;;;;;;5038316;28;46639;-85
2023/06/24 01:52:18;;;;;;;;;9.67;6.00;;;;;;;;5053092;28;46991;-82
2023/06/24 01:54:48;;;;;;;;;9.00;7.00;;;;;;;;5056024;28;45526;-83
2023/06/24 01:57:22;;;;;;;;;3.00;3.00;;;;;;;;5059847;28;45802;-82
2023/06/24 01:59:48;;;;;;;;;19.00;15.67;;;;;;;;5053215;28;45477;-84
2023/06/24 02:02:14;;;;;;;;;7.67;6.67;;;;;;;;5052349;27;47127;-81
2023/06/24 02:04:44;;;;;;;;;15.67;13.67;;;;;;;;5063985;28;45560;-82
2023/06/24 02:07:14;;;;;;;;;6.00;5.00;;;;;;;;5080604;27;45767;-80
2023/06/24 02:09:41;;;;;;;;;10.33;9.00;;;;;;;;5084242;27;45490;-81
2023/06/24 02:12:10;;;;;;;;;7.67;6.00;;;;;;;;5083163;27;45707;-80
2023/06/24 02:14:36;;;;;;;;;8.67;6.33;;;;;;;;5086108;27;45823;-80
2023/06/24 02:17:05;;;;;;;;;7.00;7.00;;;;;;;;5082311;27;45555;-79
2023/06/24 02:19:31;;;;;;;;;8.00;7.33;;;;;;;;5081440;27;45642;-80
2023/06/24 02:21:57;;;;;;;;;6.67;6.67;;;;;;;;5065790;27;46896;-82
2023/06/24 02:24:24;;;;;;;;;8.33;7.00;;;;;;;;5077455;27;45737;-82
2023/06/24 02:26:50;;;;;;;;;10.00;8.67;;;;;;;;5061490;28;45418;-81
2023/06/24 02:29:17;;;;;;;;;11.67;9.67;;;;;;;;5056816;28;46122;-82
2023/06/24 02:31:42;;;;;;;;;6.33;6.33;;;;;;;;5078216;27;46239;-81
2023/06/24 02:34:08;;;;;;;;;11.33;10.00;;;;;;;;5058683;28;45928;-81
2023/06/24 02:36:33;;;;;;;;;9.33;9.33;;;;;;;;5060202;27;45371;-82
2023/06/24 02:38:58;;;;;;;;;11.33;10.00;;;;;;;;5084425;27;45668;-82
2023/06/24 02:41:24;;;;;;;;;8.33;7.67;;;;;;;;5072762;27;45417;-82
2023/06/24 02:43:50;;;;;;;;;10.67;10.67;;;;;;;;5089342;27;45831;-81
2023/06/24 02:46:16;;;;;;;;;7.67;7.67;;;;;;;;5089106;27;45280;-80
2023/06/24 02:48:43;;;;;;;;;10.33;9.33;;;;;;;;5099146;27;45791;-81
2023/06/24 02:51:10;;;;;;;;;12.33;10.33;;;;;;;;5094540;27;45716;-82
2023/06/24 02:53:36;;;;;;;;;10.00;10.00;;;;;;;;5095944;27;45771;-82
2023/06/24 02:56:03;;;;;;;;;11.67;10.67;;;;;;;;5075436;27;45695;-82
2023/06/24 02:58:31;;;;;;;;;9.00;8.67;;;;;;;;5078217;27;46208;-82
2023/06/24 03:00:59;;;;;;;;;15.00;13.00;;;;;;;;5088270;27;46160;-84
2023/06/24 03:03:25;;;;;;;;;13.67;11.67;;;;;;;;5083204;27;45769;-80
2023/06/24 03:05:51;;;;;;;;;13.00;13.00;;;;;;;;5080347;27;45304;-80
2023/06/24 03:08:16;;;;;;;;;13.67;10.00;;;;;;;;5080889;27;46300;-82
2023/06/24 03:10:41;;;;;;;;;11.33;9.33;;;;;;;;5079374;27;48403;-83
2023/06/24 03:13:07;;;;;;;;;16.33;13.00;;;;;;;;5075697;28;45413;-81
2023/06/24 03:15:33;;;;;;;;;3.00;3.00;;;;;;;;5076295;27;45823;-82
2023/06/24 03:17:58;;;;;;;;;14.00;11.00;;;;;;;;5080912;27;45969;-86
2023/06/24 03:20:23;;;;;;;;;10.67;10.67;;;;;;;;5084080;27;45653;-87
2023/06/24 03:22:49;;;;;;;;;11.00;9.00;;;;;;;;5095423;27;45702;-86
2023/06/24 03:25:17;;;;;;;;;12.33;11.33;;;;;;;;5098002;27;45409;-86
2023/06/24 03:27:42;;;;;;;;;9.67;9.00;;;;;;;;5091621;27;46216;-86
2023/06/24 03:30:08;;;;;;;;;10.33;9.00;;;;;;;;5093289;27;47260;-86
2023/06/24 03:32:36;;;;;;;;;9.67;8.67;;;;;;;;5083993;27;45290;-83
2023/06/24 03:35:02;;;;;;;;;8.00;8.00;;;;;;;;5098828;27;45772;-80
2023/06/24 03:37:28;;;;;;;;;10.00;8.67;;;;;;;;5091039;27;45464;-81
2023/06/24 03:39:53;;;;;;;;;8.67;5.00;;;;;;;;5101577;27;46189;-82
2023/06/24 03:42:19;;;;;;;;;6.67;5.00;;;;;;;;5094446;27;45930;-79
2023/06/24 03:44:44;;;;;;;;;6.67;6.33;;;;;;;;5095692;27;44803;-85
2023/06/24 03:47:10;;;;;;;;;9.00;6.00;;;;;;;;5096591;27;45659;-86
2023/06/24 03:49:36;;;;;;;;;8.67;5.00;;;;;;;;5098528;27;45964;-85
2023/06/24 03:52:03;;;;;;;;;7.33;7.33;;;;;;;;5098949;27;45497;-86
2023/06/24 03:54:29;;;;;;;;;10.33;6.00;;;;;;;;5096589;27;45555;-85
2023/06/24 03:56:57;;;;;;;;;10.00;7.67;;;;;;;;5086176;27;46071;-85
2023/06/24 03:59:25;;;;;;;;;9.00;8.33;;;;;;;;5079118;27;45171;-86
2023/06/24 04:01:51;;;;;;;;;11.00;8.33;;;;;;;;5090294;27;45269;-86
2023/06/24 04:04:16;;;;;;;;;6.00;6.00;;;;;;;;5074882;27;45559;-83
2023/06/24 04:06:43;;;;;;;;;6.33;5.00;;;;;;;;5084574;27;46041;-85
2023/06/24 04:09:09;;;;;;;;;9.67;7.33;;;;;;;;5088011;27;45458;-81
2023/06/24 04:11:37;;;;;;;;;8.33;7.00;;;;;;;;5091540;27;45574;-83
2023/06/24 04:14:06;;;;;;;;;8.00;6.00;;;;;;;;5090937;27;45558;-82
2023/06/24 04:16:31;;;;;;;;;5.00;5.00;;;;;;;;5093184;27;45507;-80
2023/06/24 04:18:56;;;;;;;;;6.33;4.33;;;;;;;;5086609;27;45584;-80
2023/06/24 04:21:22;;;;;;;;;6.33;5.00;;;;;;;;5092806;27;45458;-82
2023/06/24 04:23:47;;;;;;;;;14.67;12.67;;;;;;;;5086188;27;45921;-80
2023/06/24 04:26:12;;;;;;;;;3.33;2.67;;;;;;;;5075937;27;45520;-80
2023/06/24 04:28:38;;;;;;;;;9.00;6.33;;;;;;;;5084157;27;45888;-79
2023/06/24 04:31:04;;;;;;;;;4.67;4.67;;;;;;;;5087871;27;45472;-82
2023/06/24 04:33:29;;;;;;;;;10.33;9.33;;;;;;;;5089665;27;45799;-80
2023/06/24 04:35:54;;;;;;;;;6.67;6.00;;;;;;;;5083704;27;45499;-85
2023/06/24 04:38:20;;;;;;;;;4.33;4.33;;;;;;;;5084059;27;45738;-85
2023/06/24 04:40:45;;;;;;;;;5.33;4.00;;;;;;;;5078213;27;45744;-78
2023/06/24 04:43:10;;;;;;;;;7.33;6.33;;;;;;;;5072575;27;46207;-81
2023/06/24 04:45:36;;;;;;;;;6.67;5.67;;;;;;;;5069973;27;46388;-82
2023/06/24 04:48:02;;;;;;;;;6.67;6.00;;;;;;;;5069894;27;46143;-85
2023/06/24 04:50:27;;;;;;;;;7.00;7.00;;;;;;;;5073541;27;45361;-86
2023/06/24 04:52:56;;;;;;;;;7.33;6.33;;;;;;;;5085190;27;45425;-86
2023/06/24 04:55:22;;;;;;;;;8.00;8.00;;;;;;;;5085379;27;46230;-82
2023/06/24 04:57:49;;;;;;;;;5.33;5.00;;;;;;;;5072248;27;45741;-86
2023/06/24 05:00:15;;;;;;;;;5.00;5.00;;;;;;;;5085632;27;45467;-85
2023/06/24 05:02:40;;;;;;;;;5.50;5.50;;;;;;;;5101360;27;45295;-87
2023/06/24 05:05:06;;;;;;;;;8.67;7.33;;;;;;;;5096761;27;46135;-85
2023/06/24 05:07:33;;;;;;;;;4.25;3.25;;;;;;;;5092694;27;46937;-84
2023/06/24 05:09:59;;;;;;;;;6.67;5.67;;;;;;;;5080355;27;45382;-82
2023/06/24 05:12:26;;;;;;;;;6.25;5.25;;;;;;;;5078379;27;45555;-85
2023/06/24 05:14:52;;;;;;;;;5.25;5.00;;;;;;;;5092626;27;45540;-82
2023/06/24 05:17:18;;;;;;;;;4.25;3.75;;;;;;;;5083348;27;46963;-84
2023/06/24 05:19:43;;;;;;;;;5.25;5.25;;;;;;;;5080222;27;45685;-85
2023/06/24 05:22:09;;;;;;;;;4.25;4.25;;;;;;;;5096222;27;45236;-84
2023/06/24 05:24:34;;;;;;;;;3.00;3.00;;;;;;;;5087078;27;46606;-85
2023/06/24 05:27:19;;;;;;;;;5.00;2.50;;;;;;;;5080429;27;48338;-84
2023/06/24 05:29:48;;;;;;;;;5.75;5.75;;;;;;;;5077643;27;46124;-85
2023/06/24 05:32:49;;;;;;;;;;;;;;;;;;;;;
2023/06/24 05:35:15;;;;;;;;;6.00;6.00;;;;;;;;5073837;28;73314;-90
2023/06/24 05:37:41;;;;;;;;;6.25;5.75;;;;;;;;5085155;27;46164;-81
2023/06/24 05:40:07;;;;;;;;;10.00;10.00;;;;;;;;5092040;27;45646;-84
2023/06/24 05:42:35;;;;;;;;;7.75;7.75;;;;;;;;5078150;27;45463;-83
2023/06/24 05:45:01;;;;;;;;;5.50;4.50;;;;;;;;5073442;27;44790;-84
2023/06/24 05:47:26;;;;;;;;;6.75;5.75;;;;;;;;5081761;27;47050;-84
2023/06/24 05:49:52;;;;;;;;;6.75;6.00;;;;;;;;5072739;27;45482;-84
2023/06/24 05:52:17;;;;;;;;;5.00;5.00;;;;;;;;5090638;27;45519;-85
2023/06/24 05:54:42;;;;;;;;;5.00;4.50;;;;;;;;5072342;28;44912;-84
2023/06/24 05:57:09;;;;;;;;;4.75;4.75;;;;;;;;5082808;27;46637;-86
2023/06/24 05:59:34;;;;;;;;;6.50;5.00;;;;;;;;5090214;27;45487;-84
2023/06/24 06:02:01;;;;;;;;;6.25;5.00;;;;;;;;5105368;27;45522;-82
2023/06/24 06:04:29;;;;;;;;;4.75;4.00;;;;;;;;5091815;27;45984;-85
2023/06/24 06:06:54;;;;;;;;;4.25;4.25;;;;;;;;5082762;27;45814;-78
2023/06/24 06:09:20;;;;;;;;;3.75;3.75;;;;;;;;5082174;27;45425;-82
2023/06/24 06:11:45;;;;;;;;;3.00;3.00;;;;;;;;5088799;27;44804;-86
2023/06/24 06:14:11;;;;;;;;;5.75;4.00;;;;;;;;5084429;27;46175;-87
2023/06/24 06:16:38;;;;;;;;;4.00;4.00;;;;;;;;5081758;27;45926;-85
2023/06/24 06:19:04;;;;;;;;;4.75;4.75;;;;;;;;5075810;27;45597;-87
2023/06/24 06:21:29;;;;;;;;;4.00;4.00;;;;;;;;5080516;27;45804;-87
2023/06/24 06:23:55;;;;;;;;;4.75;4.75;;;;;;;;5083963;27;45546;-86
2023/06/24 06:26:20;;;;;;;;;4.50;4.50;;;;;;;;5072331;27;45383;-82
2023/06/24 06:28:47;;;;;;;;;4.00;4.00;;;;;;;;5074278;27;46183;-84
2023/06/24 06:31:12;;;;;;;;;7.00;5.25;;;;;;;;5070984;27;45796;-84
2023/06/24 06:33:38;;;;;;;;;5.75;2.50;;;;;;;;5070866;27;46405;-83
2023/06/24 06:36:03;;;;;;;;;5.25;5.25;;;;;;;;5070319;27;46980;-84
2023/06/24 06:38:28;;;;;;;;;3.25;3.25;;;;;;;;5073933;27;45779;-84
2023/06/24 06:40:54;;;;;;;;;3.50;3.00;;;;;;;;5074328;27;45789;-82
2023/06/24 06:43:21;;;;;;;;;4.75;4.50;;;;;;;;5068552;27;45471;-83
2023/06/24 06:45:47;;;;;;;;;2.75;2.75;;;;;;;;5068895;27;46849;-82
2023/06/24 06:48:15;;;;;;;;;5.50;5.50;;;;;;;;5072268;27;45804;-83
2023/06/24 06:50:40;;;;;;;;;4.00;2.00;;;;;;;;5075331;27;46050;-84
2023/06/24 06:53:05;;;;;;;;;3.50;3.50;;;;;;;;5070839;28;46136;-81
2023/06/24 06:55:31;;;;;;;;;3.75;3.00;;;;;;;;5076191;27;48165;-83
2023/06/24 06:57:56;;;;;;;;;1.75;1.75;;;;;;;;5071541;27;45839;-80
2023/06/24 07:00:21;;;;;;;;;5.50;5.50;;;;;;;;5077405;27;45731;-86
2023/06/24 07:02:47;;;;;;;;;4.00;3.00;;;;;;;;5073912;27;45729;-83
2023/06/24 07:05:14;;;;;;;;;4.50;3.00;;;;;;;;5083345;27;46983;-84
2023/06/24 07:07:39;;;;;;;;;4.00;3.00;;;;;;;;5092475;27;45347;-86
2023/06/24 07:10:05;;;;;;;;;3.25;3.00;;;;;;;;5088386;27;45392;-85
2023/06/24 07:12:32;;;;;;;;;6.00;3.00;;;;;;;;5083644;27;45961;-84
2023/06/24 07:14:57;;;;;;;;;4.25;3.00;;;;;;;;5093392;27;46276;-87
2023/06/24 07:17:29;;;;;;;;;4.00;4.00;;;;;;;;5089707;27;45515;-83
2023/06/24 07:19:54;;;;;;;;;4.25;4.25;;;;;;;;5104589;27;44781;-86
2023/06/24 07:22:19;;;;;;;;;2.00;2.00;;;;;;;;5083876;27;45437;-86
2023/06/24 07:24:45;;;;;;;;;3.00;3.00;;;;;;;;5075728;27;47252;-89
2023/06/24 07:27:10;;;;;;;;;2.50;2.50;;;;;;;;5089023;27;45156;-85
2023/06/24 07:29:37;;;;;;;;;3.50;3.50;;;;;;;;5083525;27;45138;-87
2023/06/24 07:32:02;;;;;;;;;3.00;3.00;;;;;;;;5083100;27;46198;-82
2023/06/24 07:34:54;;;;;;;;;3.00;3.00;;;;;;;;5080333;27;45955;-83
2023/06/24 07:37:21;;;;;;;;;6.00;4.50;;;;;;;;5075848;27;45895;-87
2023/06/24 07:39:51;;;;;;;;;2.50;2.50;;;;;;;;5071904;27;45457;-85
2023/06/24 07:42:20;;;;;;;;;4.75;2.75;;;;;;;;5077548;27;45850;-82
2023/06/24 07:44:49;;;;;;;;;3.25;3.25;;;;;;;;5073957;27;46216;-83
2023/06/24 07:47:16;;;;;;;;;3.50;3.50;;;;;;;;5086209;27;45228;-83
2023/06/24 07:49:44;;;;;;;;;2.00;2.00;;;;;;;;5077031;27;45734;-84
2023/06/24 07:52:09;;;;;;;;;3.00;3.00;;;;;;;;5075712;27;46237;-85
2023/06/24 07:54:35;;;;;;;;;3.50;3.50;;;;;;;;5074513;27;45947;-85
2023/06/24 07:57:01;;;;;;;;;2.50;2.50;;;;;;;;5069177;27;45643;-84
2023/06/24 07:59:26;;;;;;;;;3.50;3.25;;;;;;;;5078711;27;45894;-85
2023/06/24 08:01:52;;;;;;;;;0.00;0.00;;;;;;;;5078826;27;47764;-86
2023/06/24 08:04:17;;;;;;;;;3.25;2.00;;;;;;;;5075622;27;48130;-86
2023/06/24 08:06:43;;;;;;;;;3.25;3.25;;;;;;;;5080146;27;45847;-86
2023/06/24 08:09:08;;;;;;;;;2.25;2.25;;;;;;;;5074468;27;45543;-83
2023/06/24 08:11:34;;;;;;;;;2.00;2.00;;;;;;;;5072296;27;46152;-81
2023/06/24 08:14:01;;;;;;;;;3.75;2.75;;;;;;;;5074199;27;45964;-85
2023/06/24 08:16:27;;;;;;;;;2.75;2.00;;;;;;;;5083098;27;45808;-87
2023/06/24 08:18:53;;;;;;;;;2.50;2.50;;;;;;;;5083773;28;45729;-87
2023/06/24 08:21:18;;;;;;;;;3.25;2.00;;;;;;;;5083574;27;45985;-88
2023/06/24 08:23:44;;;;;;;;;4.50;2.75;;;;;;;;5085051;27;47019;-88
2023/06/24 08:26:09;;;;;;;;;1.75;1.75;;;;;;;;5090375;27;45341;-87
2023/06/24 08:28:35;;;;;;;;;3.25;2.00;;;;;;;;5102005;27;45583;-88
2023/06/24 08:31:00;;;;;;;;;3.00;3.00;;;;;;;;5094943;27;45868;-89
2023/06/24 08:33:43;;;;;;;;;2.00;2.00;;;;;;;;5083823;27;47509;-92
2023/06/24 08:36:09;;;;;;;;;2.50;1.00;;;;;;;;5103720;27;46553;-88
2023/06/24 08:38:34;;;;;;;;;4.00;3.00;;;;;;;;5090341;22;45523;-70
2023/06/24 08:40:59;;;;;;;;;2.33;2.00;;;;;;;;5046204;28;45702;-68
2023/06/24 08:43:25;;;;;;;;;2.00;2.00;;;;;;;;5047030;28;47212;-71
2023/06/24 08:45:50;;;;;;;;;1.67;1.67;;;;;;;;5052320;28;45936;-67
2023/06/24 08:48:18;;;;;;;;;3.00;3.00;;;;;;;;5051781;28;45631;-70
2023/06/24 08:50:44;;;;;;;;;6.00;6.00;;;;;;;;5049881;28;45442;-69
2023/06/24 08:53:10;;;;;;;;;3.00;3.00;;;;;;;;5050490;28;47984;-69
2023/06/24 08:55:43;;;;;;;;;2.00;2.00;;;;;;;;5042876;28;45433;-69
2023/06/24 08:58:08;;;;;;;;;2.67;2.67;;;;;;;;5049950;28;45578;-66
2023/06/24 09:00:34;;;;;;;;;3.00;1.33;;;;;;;;5051732;28;45380;-72
2023/06/24 09:02:59;;;;;;;;;2.67;2.67;;;;;;;;5050516;28;46365;-72
2023/06/24 09:05:27;;;;;;;;;2.50;2.50;;;;;;;;5045145;28;45720;-77
2023/06/24 09:07:52;;;;;;;;;1.67;1.67;;;;;;;;5041636;28;45898;-72
2023/06/24 09:10:31;;;;;;;;;2.33;2.33;;;;;;;;5054581;28;46020;-74
2023/06/24 09:12:56;;;;;;;;;2.67;2.67;;;;;;;;5047909;28;46476;-73
2023/06/24 09:15:22;;;;;;;;;3.33;2.67;;;;;;;;5044188;28;45493;-74
2023/06/24 09:17:47;;;;;;;;;3.50;2.00;;;;;;;;5054313;28;45586;-73
2023/06/24 09:20:13;;;;;;;;;2.00;2.00;;;;;;;;5058998;28;45443;-75
2023/06/24 09:22:43;;;;;;;;;3.50;2.00;;;;;;;;5049347;28;46097;-73
2023/06/24 09:25:08;;;;;;;;;4.00;3.00;;;;;;;;5053339;28;45828;-72
2023/06/24 09:27:33;;;;;;;;;5.50;4.50;;;;;;;;5056568;28;45736;-73
2023/06/24 09:29:58;;;;;;;;;4.00;2.00;;;;;;;;5044692;28;45610;-74
2023/06/24 09:32:33;;;;;;;;;2.67;2.67;;;;;;;;5048529;28;45444;-73
2023/06/24 09:35:02;;;;;;;;;2.33;2.33;;;;;;;;5052478;28;45532;-73
2023/06/24 09:37:30;;;;;;;;;2.00;2.00;;;;;;;;5070863;27;45494;-74
2023/06/24 09:39:56;;;;;;;;;13.00;13.00;;;;;;;;5092210;27;45333;-74
2023/06/24 09:42:25;;;;;;;;;4.00;4.00;;;;;;;;5089538;27;46070;-74
2023/06/24 09:44:54;;;;;;;;;5.67;4.33;;;;;;;;5089288;27;46014;-70
2023/06/24 09:47:20;;;;;;;;;2.67;2.67;;;;;;;;5089090;27;45462;-71
2023/06/24 09:49:45;;;;;;;;;2.00;2.00;;;;;;;;5090304;27;45574;-70
2023/06/24 09:52:15;;;;;;;;;2.00;2.00;;;;;;;;5091113;27;46756;-70
2023/06/24 09:54:42;;;;;;;;;2.33;2.33;;;;;;;;5093859;27;46651;-72
2023/06/24 09:57:09;;;;;;;;;2.67;2.67;;;;;;;;5096143;27;45776;-72
2023/06/24 09:59:34;;;;;;;;;4.67;4.67;;;;;;;;5097492;27;45405;-73
2023/06/24 10:02:04;;;;;;;;;3.33;3.33;;;;;;;;5097209;27;46008;-73
2023/06/24 10:04:32;;;;;;;;;6.00;6.00;;;;;;;;5075619;27;45604;-73
2023/06/24 10:06:57;;;;;;;;;3.67;3.67;;;;;;;;5078659;27;46020;-73
2023/06/24 10:09:26;;;;;;;;;4.00;4.00;;;;;;;;5074119;27;45716;-73
2023/06/24 10:11:51;;;;;;;;;3.67;3.67;;;;;;;;5075537;27;47682;-70
2023/06/24 10:14:16;;;;;;;;;5.33;4.00;;;;;;;;5098875;27;45636;-71
2023/06/24 10:16:42;;;;;;;;;3.00;3.00;;;;;;;;5089749;27;45782;-71
2023/06/24 10:19:08;;;;;;;;;6.00;6.00;;;;;;;;5092347;27;45355;-71
2023/06/24 10:21:49;;;;;;;;;5.00;5.00;;;;;;;;5089840;27;45814;-73
2023/06/24 10:24:30;;;;;;;;;6.00;6.00;;;;;;;;5089167;27;45518;-71
2023/06/24 10:27:02;;;;;;;;;6.33;6.33;;;;;;;;5097592;27;45905;-71
2023/06/24 10:29:30;;;;;;;;;27.00;27.00;;;;;;;;5091019;27;45485;-71
2023/06/24 10:32:16;;;;;;;;;4.67;4.33;;;;;;;;5071854;27;46910;-70
2023/06/24 10:34:55;;;;;;;;;3.67;3.67;;;;;;;;5081988;27;45669;-71
2023/06/24 10:37:21;;;;;;;;;2.00;2.00;;;;;;;;5100386;27;45698;-72
2023/06/24 10:43:35;;;;;;;;;5.00;3.67;;;;;;;;4990682;28;45951;-68
2023/06/24 10:46:03;;;;;;;;;4.67;4.67;;;;;;;;4970333;28;46007;-68
2023/06/24 10:48:29;;;;;;;;;4.00;4.00;;;;;;;;5051348;27;45889;-72
2023/06/24 10:50:58;;;;;;;;;4.67;4.67;;;;;;;;5077318;27;45745;-71
2023/06/24 10:53:30;;;;;;;;;4.33;4.00;;;;;;;;5105410;27;46076;-71
2023/06/24 10:56:08;;;;;;;;;6.33;4.33;;;;;;;;5088489;27;45810;-70
2023/06/24 10:59:07;;;;;;;;;4.00;4.00;;;;;;;;5096220;27;45487;-72
2023/06/24 11:01:59;;;;;;;;;5.00;5.00;;;;;;;;5102494;27;45779;-71
2023/06/24 11:04:27;;;;;;;;;5.00;5.00;;;;;;;;5098466;27;45416;-71
2023/06/24 11:07:02;;;;;;;;;6.50;6.50;;;;;;;;5099758;27;45774;-70
2023/06/24 11:09:37;;;;;;;;;6.33;5.33;;;;;;;;5081170;27;45483;-72
2023/06/24 11:12:05;;;;;;;;;7.00;5.33;;;;;;;;5100573;27;45595;-70
2023/06/24 11:14:38;;;;;;;;;9.67;8.67;;;;;;;;5097155;27;45427;-67
2023/06/24 11:17:04;;;;;;;;;6.75;6.00;;;;;;;;5096469;27;45341;-72
2023/06/24 11:19:30;;;;;;;;;7.00;7.00;;;;;;;;5095919;27;45585;-71
2023/06/24 11:21:58;;;;;;;;;5.25;5.25;;;;;;;;5097886;27;45802;-71
2023/06/24 11:24:23;;;;;;;;;6.00;6.00;;;;;;;;5100750;27;45800;-71
2023/06/24 11:26:50;;;;;;;;;5.67;5.67;;;;;;;;5099633;27;45439;-69
2023/06/24 11:29:18;;;;;;;;;7.75;7.00;;;;;;;;5102039;27;45569;-69
2023/06/24 11:31:47;;;;;;;;;6.50;5.25;;;;;;;;5091137;27;45562;-67
2023/06/24 11:34:12;;;;;;;;;6.25;6.25;;;;;;;;5093501;27;46444;-70
2023/06/24 11:36:37;;;;;;;;;7.50;5.25;;;;;;;;5100446;27;45447;-68
2023/06/24 11:39:03;;;;;;;;;7.25;6.25;;;;;;;;5083151;27;45576;-68
2023/06/24 11:41:28;;;;;;;;;7.00;7.00;;;;;;;;5110510;27;45495;-67
2023/06/24 11:43:54;;;;;;;;;5.25;5.25;;;;;;;;5094382;27;45531;-69
2023/06/24 11:46:26;;;;;;;;;7.50;7.50;;;;;;;;5091597;27;45821;-68
2023/06/24 11:48:52;;;;;;;;;13.75;9.75;;;;;;;;5094968;27;45499;-69
2023/06/24 11:51:33;;;;;;;;;6.00;6.00;;;;;;;;5081695;27;45862;-70
2023/06/24 11:54:00;;;;;;;;;7.33;7.33;;;;;;;;5097784;27;46429;-70
2023/06/24 11:56:35;;;;;;;;;7.00;6.00;;;;;;;;5076836;27;45350;-69
2023/06/24 11:59:00;;;;;;;;;6.25;4.75;;;;;;;;5094443;27;45399;-70
2023/06/24 12:02:05;;;;;;;;;;;;;;;;;;;;;
2023/06/24 12:07:48;;;;;;;;;8.00;8.00;;;;;;;;5057696;22;44762;-69
2023/06/24 12:10:24;;;;;;;;;5.00;5.00;;;;;;;;5094428;27;45600;-69
2023/06/24 12:12:50;;;;;;;;;6.75;6.75;;;;;;;;5116391;27;45762;-68
2023/06/24 12:15:15;;;;;;;;;9.00;6.50;;;;;;;;5092364;27;47679;-71
2023/06/24 12:17:41;;;;;;;;;7.50;6.00;;;;;;;;5115282;27;45965;-68
2023/06/24 12:20:25;;;;;;;;;14.00;11.00;;;;;;;;5117608;27;45338;-68
2023/06/24 12:22:50;;;;;;;;;8.00;8.00;;;;;;;;5098682;27;45764;-67
2023/06/24 12:25:16;;;;;;;;;11.50;7.00;;;;;;;;5101584;27;46212;-72
2023/06/24 12:27:42;;;;;;;;;8.00;6.00;;;;;;;;5097578;27;45464;-71
2023/06/24 12:30:08;;;;;;;;;5.50;5.50;;;;;;;;5108874;27;46068;-73
2023/06/24 12:32:33;;;;;;;;;3.50;3.25;;;;;;;;5106959;27;45812;-73
2023/06/24 12:34:58;;;;;;;;;7.25;6.00;;;;;;;;5101066;27;45895;-72
2023/06/24 12:37:24;;;;;;;;;6.00;6.00;;;;;;;;5114094;27;45722;-71
2023/06/24 12:39:51;;;;;;;;;5.50;5.00;;;;;;;;5114006;27;45764;-72
2023/06/24 12:42:16;;;;;;;;;5.00;5.00;;;;;;;;5114505;27;45841;-70
2023/06/24 12:44:41;;;;;;;;;5.00;5.00;;;;;;;;5107915;27;45424;-71
2023/06/24 12:47:06;;;;;;;;;6.50;5.00;;;;;;;;5078576;27;45411;-74
2023/06/24 12:49:43;;;;;;;;;5.00;5.00;;;;;;;;5100294;27;45668;-73
2023/06/24 12:52:09;;;;;;;;;5.25;4.75;;;;;;;;5103187;27;45509;-73
2023/06/24 12:54:34;;;;;;;;;4.75;4.75;;;;;;;;5108353;27;46041;-73
2023/06/24 12:57:00;;;;;;;;;5.00;5.00;;;;;;;;5107427;27;45445;-69
2023/06/24 12:59:31;;;;;;;;;5.00;4.25;;;;;;;;5095306;27;45659;-71
2023/06/24 13:02:00;;;;;;;;;4.50;4.50;;;;;;;;5102279;27;45399;-70
2023/06/24 13:04:26;;;;;;;;;5.00;4.00;;;;;;;;5090460;27;48190;-69
2023/06/24 13:06:54;;;;;;;;;13.33;13.33;;;;;;;;5112841;27;45976;-70
2023/06/24 13:09:20;;;;;;;;;8.00;6.75;;;;;;;;5086729;27;46097;-70
2023/06/24 13:11:45;;;;;;;;;5.75;5.75;;;;;;;;5093133;27;45559;-70
2023/06/24 13:14:10;;;;;;;;;8.25;7.25;;;;;;;;5092960;27;45521;-70
2023/06/24 13:16:36;;;;;;;;;3.75;3.25;;;;;;;;5110982;27;45372;-71
2023/06/24 13:19:02;;;;;;;;;7.00;7.00;;;;;;;;5084466;27;45885;-73
2023/06/24 13:21:27;;;;;;;;;5.00;5.00;;;;;;;;5092899;27;45741;-72
2023/06/24 13:23:52;;;;;;;;;7.67;6.67;;;;;;;;5091559;27;47114;-70
2023/06/24 13:26:18;;;;;;;;;8.00;6.67;;;;;;;;5085666;27;45409;-68
2023/06/24 13:28:43;;;;;;;;;8.33;8.00;;;;;;;;5091764;27;45460;-70
2023/06/24 13:31:09;;;;;;;;;5.25;5.25;;;;;;;;5088557;27;46152;-72
2023/06/24 13:33:40;;;;;;;;;8.50;8.50;;;;;;;;5113975;27;46045;-72
2023/06/24 13:36:07;;;;;;;;;9.00;7.00;;;;;;;;5114041;27;45720;-69
2023/06/24 13:38:41;;;;;;;;;17.00;14.67;;;;;;;;5113933;27;45725;-70
2023/06/24 13:41:06;;;;;;;;;15.33;12.67;;;;;;;;5099467;27;45422;-70
2023/06/24 13:43:31;;;;;;;;;11.67;9.33;;;;;;;;5092943;27;46430;-69
2023/06/24 13:45:56;;;;;;;;;23.00;18.67;;;;;;;;5094928;27;45735;-68
2023/06/24 13:48:23;;;;;;;;;7.00;7.00;;;;;;;;5100723;27;45473;-69
2023/06/24 13:50:48;;;;;;;;;7.00;6.33;;;;;;;;5106391;27;45336;-71
2023/06/24 13:53:16;;;;;;;;;6.00;6.00;;;;;;;;5107488;27;45743;-69
2023/06/24 13:55:41;;;;;;;;;7.75;7.75;;;;;;;;5106140;27;45691;-69
2023/06/24 13:58:07;;;;;;;;;9.75;7.75;;;;;;;;5106239;27;45748;-68
2023/06/24 14:00:32;;;;;;;;;6.00;6.00;;;;;;;;5102034;27;45656;-68
2023/06/24 14:02:57;;;;;;;;;5.00;5.00;;;;;;;;5104853;27;45367;-68
2023/06/24 14:05:22;;;;;;;;;8.25;7.25;;;;;;;;5089260;27;45483;-68
2023/06/24 14:07:47;;;;;;;;;6.25;6.00;;;;;;;;5102910;27;45601;-69
2023/06/24 14:10:13;;;;;;;;;9.25;7.50;;;;;;;;5094059;27;45529;-68
2023/06/24 14:12:38;;;;;;;;;12.00;12.00;;;;;;;;5100202;27;45720;-67
2023/06/24 14:15:04;;;;;;;;;7.00;7.00;;;;;;;;5107261;27;45501;-69
2023/06/24 14:17:29;;;;;;;;;8.25;7.25;;;;;;;;5105457;27;45533;-70
2023/06/24 14:19:54;;;;;;;;;7.25;7.25;;;;;;;;5086775;27;46454;-67
2023/06/24 14:22:22;;;;;;;;;9.00;8.00;;;;;;;;5089994;27;45978;-71
2023/06/24 14:24:47;;;;;;;;;10.00;8.75;;;;;;;;5087958;27;45677;-68
2023/06/24 14:27:12;;;;;;;;;8.33;8.00;;;;;;;;5120900;27;45718;-67
2023/06/24 14:29:38;;;;;;;;;9.00;8.50;;;;;;;;5099897;27;46050;-67
2023/06/24 14:32:03;;;;;;;;;7.33;7.33;;;;;;;;5109982;27;45980;-71
2023/06/24 14:34:29;;;;;;;;;8.00;8.00;;;;;;;;5106368;27;45711;-74
2023/06/24 14:36:55;;;;;;;;;7.75;7.75;;;;;;;;5090363;27;45582;-68
2023/06/24 14:39:20;;;;;;;;;6.00;6.00;;;;;;;;5096983;27;45289;-70
2023/06/24 14:41:45;;;;;;;;;7.67;7.33;;;;;;;;5102961;27;46646;-68
2023/06/24 14:44:10;;;;;;;;;6.67;5.00;;;;;;;;5119485;27;46617;-69
2023/06/24 14:46:36;;;;;;;;;7.75;7.25;;;;;;;;5111176;27;45373;-71
2023/06/24 14:49:02;;;;;;;;;11.67;8.33;;;;;;;;5108297;27;45723;-72
2023/06/24 14:51:30;;;;;;;;;9.00;9.00;;;;;;;;5112763;27;45837;-75
2023/06/24 14:53:56;;;;;;;;;8.00;8.00;;;;;;;;5101744;27;45758;-78
2023/06/24 14:56:24;;;;;;;;;10.67;8.00;;;;;;;;5107174;27;45788;-76
2023/06/24 14:58:50;;;;;;;;;6.75;6.00;;;;;;;;5111797;27;45928;-75
2023/06/24 15:01:16;;;;;;;;;8.00;8.00;;;;;;;;5116378;27;45796;-76
2023/06/24 15:03:42;;;;;;;;;10.67;8.33;;;;;;;;5091326;27;45579;-70
2023/06/24 15:06:07;;;;;;;;;7.67;6.33;;;;;;;;5115585;27;45636;-72
2023/06/24 15:08:32;;;;;;;;;6.00;6.00;;;;;;;;5107358;27;45586;-73